Главная страница
METAR-TAF:

METAR-TAF

Аэропорты :

Трольхеттан-Венерсборг, Швеция

широта: 58-19N, долгота: 012-21E, высота над уровнем моря: 41 м

Текущие метеонаблюдения

Эта сводка был подготовлена 20 минут назад, в 10:50 UTC
Ветер 11 Узел от восточно-юго-восточный
Температура 3°C
Влажность 87%
Давление 1018 hPa
Видимость 10 км и более
Сплошная облачность на высоте 1300 фута

METAR: ESGT 191050Z 12011KT 9999 OVC013 03/01 Q1018

Время: 12:10 (11:10 UTC)

Прогноз

Эта сводка был подготовлена 2 часа и 19 минут назад, в 08:51 UTC
Прогноз действительный с 19-го 09 UTC до 19-го 18 UTC
Ветер 10 Узел от восточно-юго-восточный
Видимость 10 км и более
Рассеянная облачность на высоте 1500 фута
Вероятность 40%
С 19-го 09 UTC до 19-го 15 UTC
Рассеянная облачность на высоте 800 фута

TAF: ESGT 190851Z 1909/1918 12010KT 9999 BKN015 PROB40 1909/1915 BKN008

Метеонаблюдения и прогнозы для более 4000 аэропортов (сводки METAR и TAF).

Имеющиеся станции представлены на карте желтыми и красными точками.

Чтобы увидеть название станции, наведите на нее мышь.

Затем щелкните, чтобы увидеть метеонаблюдения и метеопрогнозы.

Управление картой: чтобы увеличить масштаб, щелкните зеленые кнопки с черным крестиком; чтобы уменьшить масштаб, щелкните зеленую кнопку с тире; для просмотра соседних карт щелкайте зеленые стрелки.


METAR-TAF: